Time;durP1;ratioP1;P1;durP2;ratioP2;P2;SDS_P1;SDS_P2;PMS_P1;PMS_P2;Temp;Humidity;BMP_temperature;BMP_pressure;BME280_temperature;BME280_humidity;BME280_pressure;Samples;Min_cycle;Max_cycle;Signal;HPM_P1;HPM_P2
2024/03/08 00:03:48;;;;;;;17.98;14.15;;;;;;;7.69;49.72;100289.13;10413140;28;20056;-64
2024/03/08 00:08:50;;;;;;;15.50;13.10;;;;;;;7.71;49.63;100287.19;10433870;28;20136;-64
2024/03/08 00:13:53;;;;;;;17.02;14.57;;;;;;;7.59;49.69;100293.34;10434706;28;20638;-63
2024/03/08 00:18:55;;;;;;;18.35;14.98;;;;;;;7.44;49.90;100290.75;10412007;28;20099;-64
2024/03/08 00:23:56;;;;;;;15.95;13.85;;;;;;;7.42;50.26;100286.53;10428360;28;20057;-66
2024/03/08 00:28:58;;;;;;;15.57;13.10;;;;;;;7.26;50.80;100281.38;10428622;28;20052;-64
2024/03/08 00:34:01;;;;;;;15.65;13.52;;;;;;;7.28;50.97;100287.44;10431264;28;20056;-64
2024/03/08 00:39:06;;;;;;;16.27;14.57;;;;;;;7.25;51.11;100284.97;10431018;28;20064;-64
2024/03/08 00:44:10;;;;;;;16.23;14.27;;;;;;;7.23;51.54;100277.13;10430457;28;20142;-65
2024/03/08 00:49:12;;;;;;;17.15;15.35;;;;;;;7.16;51.26;100261.75;10389180;28;20628;-63
2024/03/08 00:54:13;;;;;;;20.73;15.32;;;;;;;7.22;51.52;100272.81;10398313;28;20074;-64
2024/03/08 00:59:15;;;;;;;16.30;14.60;;;;;;;7.23;51.67;100271.00;10440132;28;20053;-64
2024/03/08 01:04:18;;;;;;;15.82;13.35;;;;;;;7.21;51.54;100262.31;10431135;28;20538;-64
2024/03/08 01:09:21;;;;;;;18.05;14.27;;;;;;;7.22;52.08;100253.41;10403538;28;20045;-64
2024/03/08 01:14:25;;;;;;;15.60;13.82;;;;;;;7.21;51.85;100238.50;10413689;28;20059;-64
2024/03/08 01:19:27;;;;;;;16.58;14.40;;;;;;;7.12;51.93;100237.31;10425207;28;20143;-63
2024/03/08 01:24:28;;;;;;;15.93;14.25;;;;;;;7.09;52.25;100232.22;10414616;28;20414;-64
2024/03/08 01:29:30;;;;;;;19.08;14.93;;;;;;;7.02;52.16;100215.88;10428149;28;20117;-64
2024/03/08 01:34:32;;;;;;;16.85;15.15;;;;;;;6.98;52.11;100219.69;10432928;28;20056;-63
2024/03/08 01:39:34;;;;;;;18.05;14.55;;;;;;;7.00;52.11;100212.50;10432551;28;20156;-64
2024/03/08 01:44:35;;;;;;;17.08;14.13;;;;;;;6.93;51.91;100203.25;10421262;28;20559;-64
2024/03/08 01:49:37;;;;;;;17.25;14.48;;;;;;;6.74;51.99;100190.41;10396622;28;20063;-64
2024/03/08 01:54:40;;;;;;;16.33;14.18;;;;;;;6.82;52.47;100203.13;10421990;28;20503;-63
2024/03/08 01:59:43;;;;;;;15.50;13.43;;;;;;;6.68;52.13;100196.94;10407039;28;20724;-64
2024/03/08 02:04:45;;;;;;;17.50;15.27;;;;;;;6.42;52.73;100184.56;10398169;28;20064;-64
2024/03/08 02:09:47;;;;;;;17.27;14.55;;;;;;;6.45;53.08;100185.19;10419116;28;20135;-63
2024/03/08 02:14:48;;;;;;;17.10;14.73;;;;;;;6.43;53.25;100180.97;10426689;28;20139;-63
2024/03/08 02:19:50;;;;;;;19.38;16.20;;;;;;;6.36;53.06;100162.88;10406793;28;20051;-64
2024/03/08 02:24:52;;;;;;;18.27;15.15;;;;;;;6.48;53.22;100165.66;10402007;28;20040;-63
2024/03/08 02:29:55;;;;;;;18.60;15.75;;;;;;;6.52;53.40;100167.16;10409490;28;20191;-64
2024/03/08 02:34:59;;;;;;;17.02;15.05;;;;;;;6.27;53.28;100126.41;10427983;28;20057;-64
2024/03/08 02:40:01;;;;;;;18.75;15.95;;;;;;;6.51;53.11;100162.78;10432319;28;20048;-64
2024/03/08 02:45:05;;;;;;;19.60;15.77;;;;;;;6.54;53.77;100159.94;10434716;28;20067;-63
2024/03/08 02:50:11;;;;;;;17.10;15.30;;;;;;;6.52;53.67;100162.69;10420835;28;20052;-63
2024/03/08 02:55:16;;;;;;;19.63;16.80;;;;;;;6.45;53.66;100157.91;10429436;28;20051;-64
2024/03/08 03:00:19;;;;;;;;;;;;;;;6.50;54.21;100161.97;10435543;28;20256;-64
2024/03/08 03:05:21;;;;;;;16.58;14.85;;;;;;;6.45;54.11;100147.34;10426511;28;20151;-64
2024/03/08 03:10:22;;;;;;;16.20;14.45;;;;;;;6.39;53.80;100148.56;10368875;28;20790;-65
2024/03/08 03:15:24;;;;;;;18.63;15.80;;;;;;;6.37;54.31;100148.66;10430396;28;20187;-67
2024/03/08 03:20:39;;;;;;;17.40;15.23;;;;;;;6.19;54.43;100124.28;10431631;28;20052;-65
2024/03/08 03:25:42;;;;;;;18.23;15.50;;;;;;;6.26;54.30;100137.09;10429727;28;20083;-64
2024/03/08 03:30:46;;;;;;;20.77;15.88;;;;;;;6.23;54.75;100132.88;10440585;28;20061;-64
2024/03/08 03:35:48;;;;;;;20.45;16.15;;;;;;;6.25;55.40;100140.69;10414095;28;20128;-65
2024/03/08 03:40:52;;;;;;;19.63;16.73;;;;;;;6.13;54.82;100114.09;10408073;28;20509;-64
2024/03/08 03:45:55;;;;;;;18.00;16.08;;;;;;;6.23;55.14;100132.00;10419585;28;20097;-65
2024/03/08 03:50:57;;;;;;;16.83;15.13;;;;;;;6.11;55.09;100117.78;10426087;28;20757;-65
2024/03/08 03:55:59;;;;;;;18.67;16.70;;;;;;;6.01;55.40;100113.09;10436774;28;20048;-65
2024/03/08 04:01:00;;;;;;;19.85;16.77;;;;;;;6.06;55.63;100115.44;10436193;28;20057;-65
2024/03/08 04:06:08;;;;;;;19.92;16.60;;;;;;;5.96;55.71;100098.44;10421450;28;20053;-64
2024/03/08 04:11:10;;;;;;;18.65;16.65;;;;;;;5.91;55.65;100108.44;10424071;28;21122;-64
2024/03/08 04:16:12;;;;;;;19.30;16.05;;;;;;;5.91;56.04;100111.94;10428766;28;20048;-63
2024/03/08 04:21:13;;;;;;;22.30;15.80;;;;;;;5.89;56.29;100124.41;10426160;28;20128;-64
2024/03/08 04:26:15;;;;;;;20.85;16.95;;;;;;;5.92;55.88;100118.94;10418239;28;20075;-64
2024/03/08 04:31:21;;;;;;;18.77;16.23;;;;;;;5.77;55.91;100114.63;10383891;28;20108;-65
2024/03/08 04:36:24;;;;;;;18.42;15.32;;;;;;;5.87;56.09;100115.75;10428626;28;20101;-65
2024/03/08 04:41:26;;;;;;;21.65;17.20;;;;;;;5.77;56.13;100096.13;10425747;28;20487;-64
2024/03/08 04:46:28;;;;;;;20.23;16.35;;;;;;;5.77;56.26;100110.16;10424623;28;20055;-64
2024/03/08 04:51:31;;;;;;;22.67;17.00;;;;;;;5.79;56.29;100107.44;10404633;28;20083;-64
2024/03/08 04:56:33;;;;;;;19.10;16.73;;;;;;;5.73;56.38;100110.47;10437836;28;20174;-64
2024/03/08 05:01:37;;;;;;;19.35;17.02;;;;;;;5.71;56.59;100097.34;10428617;28;20138;-64
2024/03/08 05:06:39;;;;;;;21.75;17.42;;;;;;;5.62;57.16;100095.28;10396345;28;20665;-65
2024/03/08 05:11:43;;;;;;;19.65;17.50;;;;;;;5.67;57.01;100098.47;10432911;28;20055;-63
2024/03/08 05:16:50;;;;;;;20.05;17.45;;;;;;;5.68;57.18;100094.91;10417748;28;20058;-63
2024/03/08 05:21:52;;;;;;;19.88;17.67;;;;;;;5.68;56.87;100096.72;10422135;28;20059;-63
2024/03/08 05:26:54;;;;;;;19.65;17.02;;;;;;;5.57;57.27;100084.16;10431137;28;20083;-64
2024/03/08 05:31:56;;;;;;;18.90;16.98;;;;;;;5.61;57.21;100089.13;10429431;28;20098;-65
2024/03/08 05:36:58;;;;;;;22.33;18.52;;;;;;;5.58;57.71;100086.69;10433006;28;20085;-65
2024/03/08 05:42:12;;;;;;;;;;;;;;;5.51;57.34;100093.31;10428594;28;20707;-65
2024/03/08 05:47:15;;;;;;;20.73;18.20;;;;;;;5.47;57.70;100081.25;10429888;28;19932;-65
2024/03/08 05:52:17;;;;;;;20.67;17.17;;;;;;;5.46;57.78;100080.41;10426939;28;20056;-64
2024/03/08 05:57:19;;;;;;;21.23;17.20;;;;;;;5.51;57.58;100076.63;10397755;28;20086;-65
2024/03/08 06:02:20;;;;;;;22.10;18.15;;;;;;;5.51;57.67;100073.97;10406953;28;21068;-64
2024/03/08 06:07:22;;;;;;;21.52;17.63;;;;;;;5.43;57.94;100064.72;10421475;28;20080;-65
2024/03/08 06:12:28;;;;;;;19.90;17.00;;;;;;;5.54;58.10;100076.41;10376179;28;20514;-65
2024/03/08 06:17:31;;;;;;;20.95;18.73;;;;;;;5.50;57.59;100070.50;10357001;28;20131;-65
2024/03/08 06:22:33;;;;;;;20.55;17.13;;;;;;;5.43;57.78;100063.91;10392416;28;20059;-65
2024/03/08 06:27:35;;;;;;;21.30;17.60;;;;;;;5.59;58.07;100075.19;10412984;28;20167;-66
2024/03/08 06:32:37;;;;;;;19.92;17.30;;;;;;;5.66;57.76;100060.66;10426257;28;20060;-65
2024/03/08 06:37:39;;;;;;;20.08;17.52;;;;;;;5.47;57.90;100031.09;10421720;28;20053;-65
2024/03/08 06:42:41;;;;;;;21.20;17.63;;;;;;;5.76;57.72;100068.00;10426101;28;20067;-65
2024/03/08 06:47:45;;;;;;;19.33;17.07;;;;;;;5.84;57.65;100077.16;10437098;28;20183;-64
2024/03/08 06:52:50;;;;;;;21.58;18.45;;;;;;;5.94;57.25;100058.91;10434470;28;20295;-64
2024/03/08 06:57:52;;;;;;;19.92;17.73;;;;;;;6.16;57.36;100070.78;10416450;28;20226;-63
2024/03/08 07:02:54;;;;;;;20.02;17.63;;;;;;;6.28;56.78;100061.19;10412801;28;20049;-64
2024/03/08 07:07:57;;;;;;;20.35;17.23;;;;;;;6.42;56.21;100047.91;10392617;28;20052;-65
2024/03/08 07:13:01;;;;;;;19.55;16.90;;;;;;;6.51;55.90;100051.72;10422145;28;20542;-65
2024/03/08 07:18:04;;;;;;;20.75;17.35;;;;;;;6.67;55.35;100060.34;10420624;28;20162;-64
2024/03/08 07:23:05;;;;;;;19.08;16.77;;;;;;;6.72;55.33;100049.44;10410681;28;20067;-66
2024/03/08 07:28:06;;;;;;;21.20;17.60;;;;;;;6.80;55.11;100048.91;10423569;28;20136;-66
2024/03/08 07:33:13;;;;;;;19.50;16.27;;;;;;;6.94;54.59;100048.81;10402762;28;20926;-65
2024/03/08 07:38:16;;;;;;;20.48;17.20;;;;;;;7.07;54.40;100033.81;10408649;28;20140;-67
2024/03/08 07:43:19;;;;;;;20.38;17.77;;;;;;;7.15;54.14;100024.50;10432287;28;20112;-65
2024/03/08 07:48:21;;;;;;;18.92;16.00;;;;;;;7.40;53.82;100035.03;10421016;28;20087;-65
2024/03/08 07:53:24;;;;;;;19.30;17.10;;;;;;;7.40;53.74;100013.84;10430531;28;20246;-67
2024/03/08 07:58:26;;;;;;;20.05;17.90;;;;;;;7.64;53.64;100013.06;10428733;28;20075;-66
2024/03/08 08:03:28;;;;;;;19.70;17.60;;;;;;;7.84;53.14;100019.56;10401472;28;20091;-65
2024/03/08 08:08:29;;;;;;;20.00;16.95;;;;;;;7.99;52.69;99999.03;10445746;28;20072;-64
2024/03/08 08:13:32;;;;;;;19.70;16.17;;;;;;;8.11;52.38;99997.28;10416703;28;20049;-67
2024/03/08 08:18:36;;;;;;;20.10;17.45;;;;;;;8.22;51.89;99996.47;10432521;28;20056;-68
2024/03/08 08:23:37;;;;;;;20.52;18.38;;;;;;;8.37;51.55;99997.97;10410923;28;20139;-68
2024/03/08 08:28:41;;;;;;;21.33;17.75;;;;;;;8.46;50.67;99992.00;10385923;28;20182;-68
2024/03/08 08:33:43;;;;;;;20.05;17.40;;;;;;;8.52;50.60;99974.78;10390939;28;20198;-68
2024/03/08 08:38:50;;;;;;;20.63;18.05;;;;;;;8.73;50.37;99966.97;10419642;28;20141;-67
2024/03/08 08:43:52;;;;;;;19.30;16.80;;;;;;;8.96;50.31;99962.53;10434596;28;20157;-65
2024/03/08 08:49:10;;;;;;;20.77;16.75;;;;;;;8.99;49.38;99949.03;10409913;28;20799;-67
2024/03/08 08:54:16;;;;;;;18.40;16.45;;;;;;;9.26;49.26;99952.25;10425744;28;20566;-68
2024/03/08 08:59:19;;;;;;;19.90;16.23;;;;;;;9.41;48.00;99948.38;10401825;28;20068;-65
2024/03/08 09:04:24;;;;;;;17.98;15.80;;;;;;;9.48;48.82;99944.25;10400380;28;20048;-66
2024/03/08 09:09:25;;;;;;;18.55;16.02;;;;;;;9.85;48.72;99933.28;10409198;28;20107;-66
2024/03/08 09:14:27;;;;;;;19.20;15.93;;;;;;;10.10;47.19;99920.59;10399762;28;20059;-68
2024/03/08 09:19:28;;;;;;;17.30;15.45;;;;;;;10.43;46.63;99916.09;10401286;28;20265;-67
2024/03/08 09:24:30;;;;;;;17.38;15.50;;;;;;;10.58;45.53;99903.28;10399655;28;20057;-69
2024/03/08 09:29:33;;;;;;;16.75;14.85;;;;;;;10.85;45.88;99909.84;10411694;28;20130;-64
2024/03/08 09:34:35;;;;;;;16.02;13.68;;;;;;;11.18;43.52;99900.72;10409227;28;21115;-64
2024/03/08 09:39:39;;;;;;;17.13;12.35;;;;;;;11.41;42.88;99885.34;10391179;28;20056;-64
2024/03/08 09:44:48;;;;;;;14.68;13.18;;;;;;;11.65;42.36;99879.63;10427507;28;20944;-65
2024/03/08 09:49:50;;;;;;;13.55;11.80;;;;;;;11.95;43.77;99861.81;10428520;28;20056;-69
2024/03/08 09:54:52;;;;;;;13.75;12.07;;;;;;;12.37;42.17;99856.13;10396308;28;20080;-68
2024/03/08 09:59:53;;;;;;;12.93;11.63;;;;;;;12.68;41.19;99839.00;10414076;28;20639;-66
2024/03/08 10:05:03;;;;;;;14.18;12.73;;;;;;;12.98;39.91;99843.22;10397893;28;20048;-67
2024/03/08 10:10:05;;;;;;;12.68;11.38;;;;;;;13.34;39.53;99835.28;10404335;28;20054;-70
2024/03/08 10:15:08;;;;;;;12.38;11.10;;;;;;;13.44;38.17;99828.03;10400849;28;20049;-62
2024/03/08 10:20:19;;;;;;;12.73;11.33;;;;;;;13.75;37.51;99824.97;10438691;28;20060;-64
2024/03/08 10:25:21;;;;;;;12.65;11.25;;;;;;;14.08;37.11;99825.22;10421038;28;20178;-66
2024/03/08 10:30:25;;;;;;;13.02;11.68;;;;;;;14.35;36.87;99814.50;10387838;28;20946;-65
2024/03/08 10:35:28;;;;;;;14.73;12.55;;;;;;;14.68;36.05;99794.09;10450002;28;20103;-63
2024/03/08 10:40:30;;;;;;;13.20;11.80;;;;;;;15.04;35.54;99788.53;10422428;28;20061;-63
2024/03/08 10:45:42;;;;;;;13.13;11.02;;;;;;;15.21;34.56;99781.38;10435105;28;20044;-63
2024/03/08 10:50:50;;;;;;;12.40;11.10;;;;;;;15.69;34.79;99779.72;10410142;28;20147;-62
2024/03/08 10:55:56;;;;;;;11.85;10.65;;;;;;;16.26;32.93;99773.44;10421906;28;20697;-63
2024/03/08 11:00:58;;;;;;;;;;;;;;;16.56;32.42;99776.38;10402199;28;20051;-63
2024/03/08 11:06:00;;;;;;;12.68;11.38;;;;;;;17.11;32.01;99757.63;10409736;28;19983;-62
2024/03/08 11:11:04;;;;;;;11.03;9.87;;;;;;;17.54;31.03;99739.16;10352192;28;20045;-63
2024/03/08 11:16:32;;;;;;;12.38;11.00;;;;;;;18.01;30.26;99740.75;10386608;28;20053;-63
2024/03/08 11:21:34;;;;;;;11.45;10.38;;;;;;;18.66;28.93;99742.84;10423084;28;20049;-62
2024/03/08 11:26:39;;;;;;;9.88;8.88;;;;;;;19.29;28.92;99724.28;10416229;28;20143;-64
2024/03/08 11:31:40;;;;;;;10.40;9.32;;;;;;;19.75;28.18;99721.09;10371215;28;20127;-63
2024/03/08 11:36:44;;;;;;;10.57;9.57;;;;;;;20.49;26.44;99706.19;10396365;28;20687;-64
2024/03/08 11:41:46;;;;;;;11.25;10.07;;;;;;;21.11;26.40;99706.19;10400510;28;20056;-63
2024/03/08 11:46:48;;;;;;;11.32;10.13;;;;;;;21.27;24.98;99690.59;10391673;28;20060;-64
2024/03/08 11:51:53;;;;;;;11.10;9.90;;;;;;;21.76;25.42;99688.53;10404998;28;20045;-62
2024/03/08 11:57:00;;;;;;;12.02;10.85;;;;;;;21.76;25.12;99683.13;10411651;28;20531;-62
2024/03/08 12:02:05;;;;;;;10.93;9.82;;;;;;;22.29;24.32;99674.00;10428423;28;20699;-63
2024/03/08 12:07:11;;;;;;;10.48;9.45;;;;;;;22.79;23.69;99663.38;10429300;28;20486;-63
2024/03/08 12:12:13;;;;;;;11.80;10.60;;;;;;;22.91;23.75;99664.31;10404382;28;20671;-64
2024/03/08 12:17:14;;;;;;;12.20;10.93;;;;;;;22.90;23.55;99657.22;10416127;28;20067;-65
2024/03/08 12:22:16;;;;;;;12.37;11.23;;;;;;;23.29;22.64;99652.56;10373834;28;20061;-65
2024/03/08 12:27:19;;;;;;;13.95;12.60;;;;;;;23.85;22.29;99649.13;10410611;28;20059;-65
2024/03/08 12:32:23;;;;;;;13.02;11.70;;;;;;;24.57;21.57;99637.63;10431029;28;20059;-64
2024/03/08 12:37:25;;;;;;;12.43;11.30;;;;;;;25.77;20.68;99636.53;10379784;28;20053;-63
2024/03/08 12:42:26;;;;;;;11.67;10.47;;;;;;;26.81;19.22;99631.28;10412807;28;20494;-63
2024/03/08 12:47:30;;;;;;;13.00;11.70;;;;;;;28.23;18.03;99610.19;10404727;28;20052;-66
2024/03/08 12:52:31;;;;;;;11.63;10.40;;;;;;;29.42;17.38;99615.72;10371447;28;20142;-66
2024/03/08 12:57:34;;;;;;;10.80;9.82;;;;;;;30.52;16.48;99594.81;10429026;28;20139;-65
2024/03/08 13:02:36;;;;;;;11.15;10.15;;;;;;;31.11;15.58;99585.28;10419944;28;20822;-64
2024/03/08 13:07:37;;;;;;;10.98;9.98;;;;;;;31.23;15.11;99590.50;10399528;28;20699;-65
2024/03/08 13:12:44;;;;;;;12.00;10.85;;;;;;;31.72;14.82;99567.84;10419269;28;20168;-63
2024/03/08 13:17:48;;;;;;;12.27;11.15;;;;;;;31.73;14.86;99565.91;10431421;28;20510;-66
2024/03/08 13:22:50;;;;;;;11.50;10.40;;;;;;;31.73;14.87;99557.66;10403976;28;20123;-64
2024/03/08 13:27:53;;;;;;;12.40;11.20;;;;;;;32.71;14.22;99559.91;10385120;28;20048;-64
2024/03/08 13:32:55;;;;;;;11.60;10.55;;;;;;;32.44;14.64;99563.91;10394568;28;20059;-64
2024/03/08 13:37:58;;;;;;;11.55;10.45;;;;;;;32.17;14.00;99548.69;10421534;28;20129;-62
2024/03/08 13:43:00;;;;;;;11.90;10.90;;;;;;;32.29;14.20;99518.03;10431936;28;20059;-64
2024/03/08 13:48:04;;;;;;;11.52;10.45;;;;;;;31.13;15.34;99517.09;10382021;28;20049;-65
2024/03/08 13:53:06;;;;;;;12.48;11.18;;;;;;;31.27;14.95;99517.38;10412355;28;20071;-64
2024/03/08 13:58:13;;;;;;;11.45;10.30;;;;;;;32.21;14.21;99497.44;10430329;28;20079;-62
2024/03/08 14:03:15;;;;;;;12.10;11.00;;;;;;;32.39;13.84;99493.19;10424888;28;20051;-64
2024/03/08 14:08:18;;;;;;;11.32;10.32;;;;;;;32.24;14.16;99490.53;10419440;28;20068;-64
2024/03/08 14:13:21;;;;;;;11.82;10.73;;;;;;;32.47;13.66;99475.22;10385148;28;20172;-65
2024/03/08 14:18:23;;;;;;;12.57;11.27;;;;;;;31.68;14.45;99467.75;10415202;28;20044;-64
2024/03/08 14:23:24;;;;;;;10.55;9.55;;;;;;;31.92;14.62;99445.06;10424656;28;20490;-64
2024/03/08 14:28:29;;;;;;;11.52;10.43;;;;;;;30.97;14.44;99441.28;10410449;28;20649;-64
2024/03/08 14:33:34;;;;;;;11.07;10.18;;;;;;;30.02;15.24;99426.22;10430727;28;20045;-67
2024/03/08 14:38:37;;;;;;;10.68;9.68;;;;;;;29.54;15.95;99427.16;10406447;28;20045;-64
2024/03/08 14:43:44;;;;;;;11.70;10.23;;;;;;;26.14;18.61;99421.91;10390737;28;20051;-63
2024/03/08 14:48:47;;;;;;;11.20;10.20;;;;;;;23.41;21.91;99407.47;10394353;28;20059;-63
2024/03/08 14:53:54;;;;;;;11.98;10.77;;;;;;;22.04;24.33;99393.72;10364289;28;20053;-64
2024/03/08 14:58:58;;;;;;;11.88;10.65;;;;;;;21.25;24.85;99400.41;10399499;28;20064;-63
2024/03/08 15:04:08;;;;;;;11.98;10.88;;;;;;;20.12;25.71;99396.78;10416119;28;20557;-63
2024/03/08 15:09:17;;;;;;;12.32;11.10;;;;;;;19.33;26.47;99385.56;10400244;28;20057;-62
2024/03/08 15:14:20;;;;;;;13.38;11.98;;;;;;;18.99;27.04;99373.81;10430103;28;20117;-62
2024/03/08 15:19:21;;;;;;;11.60;10.50;;;;;;;18.47;27.61;99377.81;10439072;28;20718;-61
2024/03/08 15:24:23;;;;;;;11.68;10.52;;;;;;;17.85;28.79;99359.47;10434952;28;20099;-64
2024/03/08 15:29:26;;;;;;;12.63;10.63;;;;;;;17.41;28.75;99367.69;10421897;28;20063;-64
2024/03/08 15:34:27;;;;;;;11.45;10.27;;;;;;;17.16;29.75;99354.59;10445321;28;20076;-63
2024/03/08 15:39:33;;;;;;;12.15;10.70;;;;;;;16.99;30.12;99339.69;10430490;28;20048;-64
2024/03/08 15:44:35;;;;;;;11.60;10.40;;;;;;;16.74;30.30;99345.31;10422023;28;20131;-64
2024/03/08 15:49:39;;;;;;;11.90;10.55;;;;;;;16.54;30.37;99345.03;10442408;28;20048;-66
2024/03/08 15:54:43;;;;;;;10.23;9.23;;;;;;;16.21;30.22;99350.72;10418260;28;20790;-62
2024/03/08 15:59:46;;;;;;;11.05;9.95;;;;;;;15.75;30.81;99343.53;10423305;28;20694;-63
2024/03/08 16:04:47;;;;;;;11.70;10.43;;;;;;;15.74;31.69;99331.13;10427605;28;20051;-65
2024/03/08 16:09:49;;;;;;;12.07;9.63;;;;;;;15.51;31.75;99340.00;10428014;28;20129;-61
2024/03/08 16:14:51;;;;;;;12.20;9.57;;;;;;;15.23;32.20;99330.81;10405276;28;20211;-62
2024/03/08 16:19:56;;;;;;;10.57;9.48;;;;;;;15.12;32.54;99335.56;10410968;28;20143;-63
2024/03/08 16:24:59;;;;;;;11.18;8.50;;;;;;;14.98;33.89;99325.56;10408945;28;20120;-68
2024/03/08 16:30:01;;;;;;;10.43;8.55;;;;;;;15.04;33.98;99322.19;10411045;28;20076;-67
2024/03/08 16:35:10;;;;;;;10.13;8.48;;;;;;;14.91;33.31;99324.63;10442446;28;20152;-67
2024/03/08 16:40:19;;;;;;;11.02;8.93;;;;;;;14.79;33.47;99322.31;10432314;28;20044;-62
2024/03/08 16:45:23;;;;;;;10.23;8.95;;;;;;;14.67;33.60;99315.66;10434079;28;20684;-63
2024/03/08 16:50:26;;;;;;;8.73;7.73;;;;;;;14.46;33.89;99297.44;10414710;28;20052;-64
2024/03/08 16:55:29;;;;;;;9.37;7.87;;;;;;;14.43;34.45;99309.34;10425254;28;20823;-63
2024/03/08 17:00:32;;;;;;;11.30;8.35;;;;;;;14.26;34.47;99299.66;10405413;28;20140;-62
2024/03/08 17:05:34;;;;;;;8.23;7.35;;;;;;;14.22;34.58;99309.06;10426651;28;20546;-63
2024/03/08 17:10:36;;;;;;;9.30;8.05;;;;;;;14.00;34.85;99299.88;10423116;28;20061;-62
2024/03/08 17:15:39;;;;;;;8.23;7.43;;;;;;;13.92;35.25;99306.09;10389402;28;20090;-62
2024/03/08 17:20:42;;;;;;;8.82;7.53;;;;;;;13.76;35.14;99302.38;10410597;28;20105;-63
2024/03/08 17:25:46;;;;;;;8.15;7.18;;;;;;;13.66;35.58;99301.75;10433594;28;20052;-66
2024/03/08 17:30:49;;;;;;;;;;;;;;;13.32;36.35;99267.09;10431928;28;20072;-65
2024/03/08 17:35:58;;;;;;;10.50;9.30;;;;;;;13.34;36.80;99292.66;10406973;28;22752;-63
2024/03/08 17:40:59;;;;;;;10.88;9.00;;;;;;;13.20;36.92;99296.81;10406906;28;21167;-64
2024/03/08 17:46:04;;;;;;;11.48;9.73;;;;;;;13.06;38.13;99300.94;10415122;28;20949;-63
2024/03/08 17:51:07;;;;;;;10.98;9.18;;;;;;;12.96;37.95;99308.25;10419449;28;20329;-65
2024/03/08 17:56:08;;;;;;;10.50;9.40;;;;;;;12.93;38.26;99303.25;10403595;28;20118;-62
2024/03/08 18:01:11;;;;;;;11.85;9.48;;;;;;;12.89;38.33;99299.22;10427369;28;20064;-64
2024/03/08 18:06:14;;;;;;;11.70;10.10;;;;;;;12.79;38.47;99293.16;10423350;28;20057;-63
2024/03/08 18:11:16;;;;;;;10.50;9.40;;;;;;;12.67;38.36;99285.47;10401120;28;20148;-63
2024/03/08 18:16:18;;;;;;;10.63;9.30;;;;;;;12.63;38.59;99284.09;10428018;28;20053;-62
2024/03/08 18:21:20;;;;;;;12.48;10.50;;;;;;;12.58;38.99;99282.91;10430960;28;20059;-63
2024/03/08 18:26:26;;;;;;;10.73;9.60;;;;;;;12.38;38.85;99270.66;10393653;28;20057;-62
2024/03/08 18:31:28;;;;;;;10.05;8.80;;;;;;;12.40;39.21;99299.00;10398794;28;20057;-63
2024/03/08 18:36:30;;;;;;;14.13;10.07;;;;;;;12.29;39.54;99287.59;10394123;28;20526;-61
2024/03/08 18:41:34;;;;;;;10.80;9.60;;;;;;;12.34;39.71;99284.44;10428102;28;20060;-64
2024/03/08 18:46:38;;;;;;;13.90;10.20;;;;;;;12.31;39.70;99274.94;10390330;28;20136;-62
2024/03/08 18:51:43;;;;;;;;;;;;;;;12.18;40.10;99264.69;10437814;28;20299;-64
2024/03/08 18:56:46;;;;;;;13.20;10.23;;;;;;;12.06;40.38;99259.81;10405591;28;19925;-63
2024/03/08 19:01:50;;;;;;;12.35;10.13;;;;;;;12.09;40.79;99276.31;10422194;28;20052;-61
2024/03/08 19:06:52;;;;;;;11.77;10.48;;;;;;;11.97;41.46;99265.06;10437240;28;20063;-63
2024/03/08 19:11:56;;;;;;;12.43;10.43;;;;;;;11.89;41.38;99257.00;10442834;28;20071;-61
2024/03/08 19:16:57;;;;;;;11.07;9.93;;;;;;;11.82;41.68;99242.59;10425211;28;20169;-63
2024/03/08 19:21:59;;;;;;;14.52;10.40;;;;;;;11.79;42.10;99238.41;10407784;28;20052;-63
2024/03/08 19:27:02;;;;;;;10.52;9.43;;;;;;;11.63;42.43;99223.16;10430862;28;20142;-62
2024/03/08 19:32:05;;;;;;;11.55;9.88;;;;;;;11.60;42.78;99235.94;10442880;28;20044;-62
2024/03/08 19:37:08;;;;;;;10.70;9.60;;;;;;;11.50;42.94;99234.22;10401115;28;20073;-63
2024/03/08 19:42:09;;;;;;;11.50;10.13;;;;;;;11.45;42.91;99241.84;10428792;28;20167;-63
2024/03/08 19:47:15;;;;;;;10.98;9.88;;;;;;;11.39;43.48;99245.09;10434656;28;20080;-62
2024/03/08 19:52:21;;;;;;;12.60;10.00;;;;;;;11.31;43.58;99250.38;10423885;28;20049;-64
2024/03/08 19:57:22;;;;;;;10.73;9.02;;;;;;;11.31;43.96;99243.22;10402997;28;20498;-63
2024/03/08 20:02:27;;;;;;;10.77;9.30;;;;;;;11.26;43.95;99245.50;10419475;28;20681;-63
2024/03/08 20:07:29;;;;;;;;;;;;;;;11.18;44.05;99245.41;10381452;28;20053;-64
2024/03/08 20:12:31;;;;;;;11.23;9.43;;;;;;;11.14;44.48;99246.72;10428619;28;20509;-65
2024/03/08 20:17:36;;;;;;;11.07;9.60;;;;;;;11.09;44.42;99246.31;10438878;28;20059;-63
2024/03/08 20:22:38;;;;;;;11.82;9.77;;;;;;;10.99;44.37;99245.56;10422290;28;20056;-62
2024/03/08 20:27:44;;;;;;;10.90;9.40;;;;;;;10.98;44.73;99238.56;10440529;28;20086;-63
2024/03/08 20:32:46;;;;;;;11.40;9.38;;;;;;;10.90;45.05;99232.16;10441097;28;20060;-63
2024/03/08 20:37:48;;;;;;;11.40;10.00;;;;;;;10.89;45.39;99235.81;10431326;28;20171;-61
2024/03/08 20:42:50;;;;;;;9.95;8.45;;;;;;;10.71;45.41;99211.00;10424296;28;20130;-62
2024/03/08 20:47:52;;;;;;;10.90;9.27;;;;;;;10.75;45.29;99231.03;10439926;28;20636;-62
2024/03/08 20:52:53;;;;;;;10.73;9.00;;;;;;;10.69;45.38;99234.25;10419690;28;20064;-65
2024/03/08 20:57:57;;;;;;;10.05;9.07;;;;;;;10.55;45.93;99211.66;10420405;28;20071;-64
2024/03/08 21:02:58;;;;;;;10.65;8.93;;;;;;;10.60;45.83;99234.16;10422580;28;20113;-63
2024/03/08 21:08:00;;;;;;;11.63;9.88;;;;;;;10.56;45.81;99229.28;10416731;28;20115;-62
2024/03/08 21:13:04;;;;;;;11.93;9.40;;;;;;;10.49;45.87;99234.34;10417531;28;20057;-62
2024/03/08 21:18:08;;;;;;;10.55;9.45;;;;;;;10.37;46.20;99222.25;10437177;28;20216;-62
2024/03/08 21:23:14;;;;;;;9.60;8.65;;;;;;;10.42;46.22;99238.63;10437037;28;20053;-63
2024/03/08 21:28:18;;;;;;;10.90;9.32;;;;;;;10.36;46.44;99229.41;10437496;28;20048;-62
2024/03/08 21:33:21;;;;;;;;;;;;;;;10.28;46.49;99231.91;10397233;28;20063;-64
2024/03/08 21:38:26;;;;;;;10.20;9.15;;;;;;;10.26;46.47;99231.22;10383643;28;20021;-64
2024/03/08 21:43:28;;;;;;;11.55;9.70;;;;;;;10.19;46.74;99220.34;10430945;28;20636;-63
2024/03/08 21:48:30;;;;;;;13.07;10.75;;;;;;;10.14;46.41;99208.47;10425561;28;20253;-62
2024/03/08 21:53:31;;;;;;;10.40;9.20;;;;;;;10.15;46.74;99216.31;10424702;28;20511;-61
2024/03/08 21:58:36;;;;;;;10.43;9.40;;;;;;;10.11;46.98;99212.25;10394866;28;20421;-63
2024/03/08 22:03:42;;;;;;;11.52;10.13;;;;;;;10.04;47.11;99213.81;10433043;28;20712;-63
2024/03/08 22:08:44;;;;;;;10.25;9.13;;;;;;;10.05;47.22;99216.31;10423623;28;20147;-64
2024/03/08 22:13:48;;;;;;;10.07;8.93;;;;;;;9.98;47.32;99217.06;10437378;28;20533;-62
2024/03/08 22:18:49;;;;;;;10.98;9.75;;;;;;;9.98;47.13;99222.38;10401308;28;20051;-63
2024/03/08 22:23:51;;;;;;;10.45;9.10;;;;;;;9.91;47.08;99230.94;10437435;28;20145;-62
2024/03/08 22:28:53;;;;;;;11.02;9.80;;;;;;;9.81;47.49;99222.13;10396493;28;20055;-62
2024/03/08 22:33:54;;;;;;;11.32;9.60;;;;;;;9.75;47.52;99224.53;10405303;28;20767;-62
2024/03/08 22:38:56;;;;;;;10.40;9.30;;;;;;;9.72;47.76;99225.66;10408401;28;20740;-63
2024/03/08 22:43:58;;;;;;;10.65;9.50;;;;;;;9.72;47.89;99236.28;10416191;28;20075;-62
2024/03/08 22:48:59;;;;;;;10.93;9.50;;;;;;;9.69;47.91;99237.41;10420457;28;20045;-62
2024/03/08 22:54:02;;;;;;;11.90;9.98;;;;;;;9.64;47.92;99229.03;10427694;28;20059;-63
2024/03/08 22:59:05;;;;;;;17.48;11.23;;;;;;;9.65;48.17;99229.88;10425927;28;20059;-61
2024/03/08 23:04:08;;;;;;;12.35;9.45;;;;;;;9.61;48.07;99233.78;10432216;28;20056;-62
2024/03/08 23:09:12;;;;;;;10.90;9.60;;;;;;;9.58;48.24;99237.56;10432245;28;20044;-62